Time;durP1;ratioP1;P1;durP2;ratioP2;P2;SDS_P1;SDS_P2;PMS_P1;PMS_P2;Temp;Humidity;BMP_temperature;BMP_pressure;BME280_temperature;BME280_humidity;BME280_pressure;Samples;Min_cycle;Max_cycle;Signal;HPM_P1;HPM_P2
2022/09/16 00:01:10;;;;;;;6.72;2.28;;;10.90;99.90;;;;;;5061729;28;19977;-67
2022/09/16 00:03:35;;;;;;;7.85;2.13;;;10.90;99.90;;;;;;5050377;28;20045;-68
2022/09/16 00:06:01;;;;;;;;;;;10.90;99.90;;;;;;5057438;28;20033;-68
2022/09/16 00:08:26;;;;;;;6.88;3.00;;;10.90;99.90;;;;;;5060795;28;19939;-68
2022/09/16 00:10:52;;;;;;;;;;;10.90;99.90;;;;;;5055320;28;20051;-69
2022/09/16 00:13:18;;;;;;;2.70;2.00;;;10.90;99.90;;;;;;5060084;28;19931;-67
2022/09/16 00:15:45;;;;;;;4.05;2.30;;;10.90;99.90;;;;;;5060195;28;20044;-67
2022/09/16 00:18:11;;;;;;;3.17;2.00;;;11.00;99.90;;;;;;5049821;28;20071;-67
2022/09/16 00:20:41;;;;;;;;;;;11.00;99.90;;;;;;5045608;28;20033;-68
2022/09/16 00:23:07;;;;;;;5.43;2.20;;;11.00;99.90;;;;;;5044869;28;19917;-68
2022/09/16 00:25:32;;;;;;;;;;;11.00;99.90;;;;;;5045049;28;20049;-67
2022/09/16 00:27:58;;;;;;;8.35;2.28;;;11.00;99.90;;;;;;5046773;28;19916;-67
2022/09/16 00:30:24;;;;;;;;;;;10.80;99.90;;;;;;5042438;28;20090;-67
2022/09/16 00:32:49;;;;;;;4.05;1.88;;;10.80;99.90;;;;;;5046658;28;20667;-66
2022/09/16 00:35:15;;;;;;;;;;;10.80;99.90;;;;;;5044533;28;20460;-67
2022/09/16 00:37:40;;;;;;;6.25;2.17;;;10.90;99.90;;;;;;5046824;28;20015;-66
2022/09/16 00:40:06;;;;;;;;;;;10.90;99.90;;;;;;5044569;28;20754;-66
2022/09/16 00:42:37;;;;;;;2.28;1.40;;;10.90;99.90;;;;;;5045100;28;19986;-66
2022/09/16 00:45:26;;;;;;;5.28;1.58;;;10.80;99.90;;;;;;5041363;28;20076;-69
2022/09/16 00:48:05;;;;;;;6.55;1.27;;;10.80;99.90;;;;;;5043654;28;20080;-68
2022/09/16 00:50:37;;;;;;;10.63;1.50;;;10.90;99.90;;;;;;5045776;28;20112;-67
2022/09/16 00:53:04;;;;;;;6.72;1.70;;;10.80;99.90;;;;;;5054532;28;20576;-67
2022/09/16 00:55:33;;;;;;;4.22;1.30;;;10.80;99.90;;;;;;5056759;28;20045;-67
2022/09/16 00:58:12;;;;;;;3.78;1.88;;;10.80;99.90;;;;;;5047070;28;20048;-67
2022/09/16 01:00:38;;;;;;;4.20;1.75;;;10.80;99.90;;;;;;5043624;28;20600;-68
2022/09/16 01:03:04;;;;;;;;;;;10.80;99.90;;;;;;5047197;28;20043;-68
2022/09/16 01:05:30;;;;;;;3.60;1.97;;;10.70;99.90;;;;;;5043987;28;19929;-68
2022/09/16 01:07:56;;;;;;;;;;;10.80;99.90;;;;;;5047149;28;20337;-67
2022/09/16 01:10:23;;;;;;;7.63;2.30;;;10.80;99.90;;;;;;5044163;28;20362;-66
2022/09/16 01:12:55;;;;;;;5.80;3.50;;;10.80;99.90;;;;;;5045116;28;20037;-68
2022/09/16 01:15:40;;;;;;;3.88;2.50;;;10.80;99.90;;;;;;5045137;28;20045;-68
2022/09/16 01:18:09;;;;;;;7.43;3.10;;;10.80;99.90;;;;;;5047034;28;20033;-67
2022/09/16 01:21:06;;;;;;;7.65;3.50;;;10.70;99.90;;;;;;5043859;28;20048;-67
2022/09/16 01:23:57;;;;;;;11.07;4.10;;;10.70;99.90;;;;;;5045720;28;20044;-67
2022/09/16 01:26:53;;;;;;;3.90;2.90;;;10.70;99.90;;;;;;5035325;28;20061;-67
2022/09/16 01:30:09;;;;;;;5.95;3.08;;;10.70;99.90;;;;;;5045131;28;20390;-66
2022/09/16 01:32:48;;;;;;;9.35;4.25;;;10.70;99.90;;;;;;5028695;28;20405;-68
2022/09/16 01:35:42;;;;;;;9.63;4.28;;;10.70;99.90;;;;;;5034925;28;20041;-67
2022/09/16 01:38:30;;;;;;;6.55;3.47;;;10.70;99.90;;;;;;5035354;28;20409;-67
2022/09/16 01:41:09;;;;;;;9.00;3.30;;;10.60;99.90;;;;;;5072952;28;20043;-68
2022/09/16 01:43:59;;;;;;;8.70;3.35;;;10.60;99.90;;;;;;5045548;28;20451;-67
2022/09/16 01:46:52;;;;;;;4.93;3.10;;;10.60;99.90;;;;;;5038242;28;20069;-66
2022/09/16 01:49:49;;;;;;;11.93;3.00;;;10.70;99.90;;;;;;5043343;28;20064;-68
2022/09/16 01:52:17;;;;;;;6.57;2.80;;;10.70;99.90;;;;;;5022644;28;20061;-67
2022/09/16 01:55:00;;;;;;;4.57;2.60;;;10.70;99.90;;;;;;5043557;28;20420;-67
2022/09/16 01:57:44;;;;;;;7.35;3.72;;;10.70;99.90;;;;;;5045189;28;20080;-66
2022/09/16 02:00:13;;;;;;;12.02;3.40;;;10.50;99.90;;;;;;5042994;28;20143;-68
2022/09/16 02:03:00;;;;;;;15.07;3.47;;;10.50;99.90;;;;;;5039325;28;20136;-67
2022/09/16 02:05:48;;;;;;;;;;;10.60;99.90;;;;;;5041013;28;20064;-67
2022/09/16 02:08:19;;;;;;;;;;;10.50;99.90;;;;;;5042117;28;20411;-66
2022/09/16 02:10:54;;;;;;;7.15;3.05;;;10.60;99.90;;;;;;5039557;28;19962;-67
2022/09/16 02:13:22;;;;;;;5.32;2.78;;;;;;;;;;5046252;28;20115;-67
2022/09/16 02:15:51;;;;;;;5.60;3.05;;;;;;;;;;5042405;28;20127;-68
2022/09/16 02:18:19;;;;;;;5.03;2.38;;;;;;;;;;5046107;28;20106;-67
2022/09/16 02:20:47;;;;;;;4.65;2.58;;;;;;;;;;5042359;28;20037;-67
2022/09/16 02:23:36;;;;;;;3.90;2.50;;;;;;;;;;5045378;28;20132;-66
2022/09/16 02:26:04;;;;;;;6.55;2.22;;;;;;;;;;5031949;28;20076;-67
2022/09/16 02:28:33;;;;;;;6.00;2.22;;;;;;;;;;5045732;28;20060;-68
2022/09/16 02:31:01;;;;;;;4.10;2.00;;;;;;;;;;5041643;28;20045;-68
2022/09/16 02:33:31;;;;;;;5.47;2.30;;;;;;;;;;5044847;28;20115;-67
2022/09/16 02:35:58;;;;;;;4.30;2.10;;;;;;;;;;5041625;28;20909;-67
2022/09/16 02:38:28;;;;;;;4.35;2.17;;;;;;;;;;5044347;28;20580;-67
2022/09/16 02:40:56;;;;;;;8.77;2.47;;;;;;;;;;5041557;28;20045;-66
2022/09/16 02:43:22;;;;;;;7.72;2.30;;;;;;;;;;5044880;28;20658;-66
2022/09/16 02:46:03;;;;;;;5.55;1.80;;;;;;;;;;5041777;28;20585;-67
2022/09/16 02:48:29;;;;;;;6.85;1.83;;;;;;;;;;5044261;28;20044;-66
2022/09/16 02:50:55;;;;;;;;;;;;;;;;;;5042568;28;20041;-67
2022/09/16 02:53:27;;;;;;;8.88;1.70;;;;;;;;;;5045073;28;19924;-67
2022/09/16 02:55:56;;;;;;;5.93;2.03;;;;;;;;;;5039677;28;20045;-67
2022/09/16 02:58:22;;;;;;;5.72;1.60;;;;;;;;;;5045806;28;20041;-67
2022/09/16 03:00:49;;;;;;;4.38;1.70;;;;;;;;;;5041647;28;20041;-68
2022/09/16 03:03:15;;;;;;;5.88;1.58;;;;;;;;;;5045168;28;20056;-67
2022/09/16 03:06:00;;;;;;;6.25;1.90;;;;;;;;;;5041614;28;20153;-68
2022/09/16 03:08:26;;;;;;;7.07;1.90;;;;;;;;;;5045302;28;20037;-68
2022/09/16 03:10:52;;;;;;;5.40;1.40;;;;;;;;;;5041475;28;20068;-67
2022/09/16 03:13:27;;;;;;;6.03;1.80;;;;;;;;;;5044332;28;20037;-68
2022/09/16 03:15:59;;;;;;;3.38;2.25;;;;;;;;;;5041858;28;20099;-66
2022/09/16 03:18:41;;;;;;;8.05;1.80;;;;;;;;;;5044020;28;20052;-68
2022/09/16 03:21:30;;;;;;;7.88;2.15;;;;;;;;;;5040352;28;20033;-67
2022/09/16 03:24:09;;;;;;;5.50;1.63;;;;;;;;;;5044286;28;20564;-66
2022/09/16 03:26:45;;;;;;;5.60;2.65;;;;;;;;;;5037199;28;20153;-68
2022/09/16 03:29:21;;;;;;;8.27;2.28;;;;;;;;;;5037288;28;20075;-67
2022/09/16 03:31:55;;;;;;;9.38;2.00;;;;;;;;;;5041286;28;20455;-66
2022/09/16 03:34:33;;;;;;;14.80;2.47;;;;;;;;;;5044113;28;20564;-67
2022/09/16 03:37:02;;;;;;;6.57;2.40;;;;;;;;;;5040982;28;20052;-67
2022/09/16 03:39:28;;;;;;;7.72;2.25;;;;;;;;;;5044748;28;20124;-66
2022/09/16 03:41:54;;;;;;;4.72;2.08;;;;;;;;;;5040467;28;20120;-68
2022/09/16 03:44:20;;;;;;;6.05;2.25;;;;;;;;;;5044094;28;20037;-68
2022/09/16 03:46:46;;;;;;;;;;;;;;;;;;5042138;28;20124;-67
2022/09/16 03:49:12;;;;;;;8.15;2.42;;;;;;;;;;5045655;28;20015;-68
2022/09/16 03:51:38;;;;;;;7.78;2.35;;;;;;;;;;5041787;28;20132;-67
2022/09/16 03:54:04;;;;;;;;;;;;;;;;;;5047681;28;20120;-67
2022/09/16 03:56:30;;;;;;;5.65;2.50;;;;;;;;;;5044984;28;19917;-66
2022/09/16 03:58:56;;;;;;;;;;;;;;;;;;5047350;28;20041;-67
2022/09/16 04:01:22;;;;;;;5.43;2.75;;;;;;;;;;5046114;28;19921;-68
2022/09/16 04:03:48;;;;;;;7.22;2.55;;;;;;;;;;5046804;28;20037;-66
2022/09/16 04:06:14;;;;;;;;;;;;;;;;;;5045411;28;20045;-67
2022/09/16 04:08:40;;;;;;;4.90;2.60;;;;;;;;;;5048977;28;19920;-66
2022/09/16 04:11:07;;;;;;;4.55;2.55;;;;;;;;;;5042608;28;20770;-67
2022/09/16 04:13:34;;;;;;;6.85;2.78;;;;;;;;;;5046725;28;20099;-66
2022/09/16 04:16:01;;;;;;;7.30;2.88;;;;;;;;;;5042977;28;20075;-66
2022/09/16 04:18:27;;;;;;;9.15;2.75;;;;;;;;;;5047653;28;20037;-68
2022/09/16 04:20:57;;;;;;;6.43;2.55;;;;;;;;;;5055647;28;20041;-67
2022/09/16 04:23:24;;;;;;;8.52;2.28;;;;;;;;;;5058083;28;20041;-67
2022/09/16 04:25:54;;;;;;;8.25;2.28;;;;;;;;;;5053389;28;20041;-67
2022/09/16 04:28:20;;;;;;;7.25;2.25;;;;;;;;;;5053310;28;20040;-68
2022/09/16 04:30:46;;;;;;;;;;;;;;;;;;5048151;28;20034;-67
2022/09/16 04:33:12;;;;;;;10.15;2.80;;;;;;;;;;5047001;28;19967;-67
2022/09/16 04:35:37;;;;;;;;;;;;;;;;;;5045586;28;20071;-66
2022/09/16 04:38:04;;;;;;;10.55;3.00;;;;;;;;;;5047115;28;19966;-66
2022/09/16 04:40:30;;;;;;;5.00;2.75;;;;;;;;;;5044937;28;20044;-66
2022/09/16 04:42:56;;;;;;;;;;;;;;;;;;5047534;28;20045;-68
2022/09/16 04:45:22;;;;;;;7.93;2.03;;;;;;;;;;5045070;28;19921;-68
2022/09/16 04:47:48;;;;;;;6.32;2.78;;;;;;;;;;5047398;28;20511;-67
2022/09/16 04:50:14;;;;;;;8.70;3.45;;;;;;;;;;5045332;28;20068;-67
2022/09/16 04:52:40;;;;;;;5.60;2.28;;;;;;;;;;5046741;28;20079;-68
2022/09/16 04:55:06;;;;;;;;;;;;;;;;;;5035991;28;20151;-67
2022/09/16 04:57:32;;;;;;;5.72;2.10;;;;;;;;;;5044827;28;19974;-68
2022/09/16 04:59:58;;;;;;;;;;;;;;;;;;5046292;28;20930;-66
2022/09/16 05:02:24;;;;;;;7.53;2.58;;;;;;;;;;5047695;28;19920;-67
2022/09/16 05:04:50;;;;;;;6.43;2.05;;;;;;;;;;5047955;28;20116;-68
2022/09/16 05:07:16;;;;;;;;;;;;;;;;;;5047928;28;20592;-66
2022/09/16 05:09:42;;;;;;;3.72;2.10;;;;;;;;;;5045192;28;19920;-69
2022/09/16 05:12:08;;;;;;;;;;;;;;;;;;5045109;28;20034;-67
2022/09/16 05:14:34;;;;;;;6.73;1.60;;;;;;;;;;5044965;28;19921;-66
2022/09/16 05:17:00;;;;;;;;;;;;;;;;;;5042952;28;21927;-67
2022/09/16 05:19:26;;;;;;;5.90;2.25;;;;;;;;;;5046714;28;19917;-67
2022/09/16 05:21:52;;;;;;;3.50;1.50;;;;;;;;;;5045543;28;20040;-67
2022/09/16 05:24:18;;;;;;;5.47;1.67;;;;;;;;;;5045994;28;20037;-67
2022/09/16 05:26:44;;;;;;;5.60;1.70;;;;;;;;;;5042722;28;20041;-66
2022/09/16 05:29:10;;;;;;;;;;;;;;;;;;5047128;28;20155;-67
2022/09/16 05:31:37;;;;;;;7.05;1.65;;;;;;;;;;5042607;28;20016;-66
2022/09/16 05:34:06;;;;;;;10.93;1.80;;;;;;;;;;5045733;28;20385;-67
2022/09/16 05:36:33;;;;;;;5.95;1.80;;;;;;;;;;5038855;28;20552;-66
2022/09/16 05:39:00;;;;;;;6.68;1.80;;;;;;;;;;5046172;28;20090;-68
2022/09/16 05:41:27;;;;;;;16.08;2.55;;;;;;;;;;5049922;28;20044;-67
2022/09/16 05:43:53;;;;;;;6.43;1.90;;;;;;;;;;5046882;28;20080;-67
2022/09/16 05:46:20;;;;;;;10.07;1.77;;;;;;;;;;5042653;28;20492;-67
2022/09/16 05:48:47;;;;;;;7.40;1.73;;;;;;;;;;5046842;28;20056;-67
2022/09/16 05:51:14;;;;;;;8.18;1.58;;;;;;;;;;5040854;28;20069;-68
2022/09/16 05:53:41;;;;;;;4.75;1.67;;;;;;;;;;5045992;28;20044;-68
2022/09/16 05:56:09;;;;;;;3.53;1.45;;;;;;;;;;5043307;28;20475;-67
2022/09/16 05:58:36;;;;;;;7.18;1.63;;;;;;;;;;5046483;28;20461;-67
2022/09/16 06:01:04;;;;;;;4.65;1.60;;;;;;;;;;5039403;28;20037;-66
2022/09/16 06:03:31;;;;;;;5.00;1.63;;;;;;;;;;5043813;28;20512;-67
2022/09/16 06:06:04;;;;;;;7.78;1.80;;;;;;;;;;5040483;28;20103;-67
2022/09/16 06:08:32;;;;;;;4.32;1.40;;;;;;;;;;5035877;28;20413;-67
2022/09/16 06:11:02;;;;;;;5.18;1.80;;;;;;;;;;5041723;28;20037;-68
2022/09/16 06:13:28;;;;;;;6.18;1.80;;;;;;;;;;5045393;28;20091;-69
2022/09/16 06:15:54;;;;;;;6.90;1.65;;;;;;;;;;5041740;28;20390;-69
2022/09/16 06:18:20;;;;;;;;;;;;;;;;;;5053540;28;20040;-67
2022/09/16 06:20:47;;;;;;;4.05;1.30;;;;;;;;;;5050502;28;19920;-68
2022/09/16 06:23:13;;;;;;;3.53;1.40;;;;;;;;;;5056328;28;20036;-67
2022/09/16 06:25:39;;;;;;;6.82;1.70;;;;;;;;;;5046880;28;20047;-68
2022/09/16 06:28:05;;;;;;;;;;;;;;;;;;5053350;28;20036;-68
2022/09/16 06:30:31;;;;;;;6.03;1.88;;;;;;;;;;5048957;28;19924;-69
2022/09/16 06:32:57;;;;;;;6.65;1.27;;;;;;;;;;5050736;28;20041;-68
2022/09/16 06:35:23;;;;;;;;;;;;;;;;;;5056271;28;20535;-68
2022/09/16 06:37:49;;;;;;;6.72;1.58;;;;;;;;;;5044370;28;19986;-68
2022/09/16 06:40:16;;;;;;;7.65;1.75;;;;;;;;;;5035949;28;20041;-67
2022/09/16 06:42:42;;;;;;;5.80;1.52;;;;;;;;;;5045420;28;20037;-68
2022/09/16 06:45:08;;;;;;;6.72;1.90;;;;;;;;;;5042885;28;20072;-67
2022/09/16 06:47:34;;;;;;;10.18;2.05;;;;;;;;;;5044341;28;20037;-67
2022/09/16 06:50:00;;;;;;;7.95;2.10;;;;;;;;;;5042652;28;20041;-68
2022/09/16 06:52:27;;;;;;;12.43;1.98;;;;;;;;;;5045149;28;20416;-67
2022/09/16 06:54:53;;;;;;;5.35;1.67;;;;;;;;;;5043535;28;20041;-68
2022/09/16 06:57:21;;;;;;;5.00;1.50;;;;;;;;;;5042878;28;20044;-67
2022/09/16 06:59:48;;;;;;;4.60;1.65;;;;;;;;;;5046713;28;20053;-67
2022/09/16 07:02:14;;;;;;;5.47;1.90;;;;;;;;;;5040724;28;20501;-67
2022/09/16 07:04:40;;;;;;;;;;;;;;;;;;5044270;28;20051;-68
2022/09/16 07:07:06;;;;;;;8.57;1.67;;;;;;;;;;5042441;28;19921;-68
2022/09/16 07:09:32;;;;;;;5.40;2.53;;;;;;;;;;5051233;28;20040;-68
2022/09/16 07:11:58;;;;;;;;;;;;;;;;;;5043628;28;20041;-67
2022/09/16 07:14:24;;;;;;;5.30;1.90;;;;;;;;;;5040388;28;19967;-68
2022/09/16 07:16:51;;;;;;;7.18;2.30;;;;;;;;;;5041384;28;20048;-68
2022/09/16 07:19:17;;;;;;;6.65;2.65;;;;;;;;;;5045083;28;20044;-68
2022/09/16 07:21:43;;;;;;;3.95;2.20;;;;;;;;;;5041280;28;20086;-68
2022/09/16 07:24:11;;;;;;;5.32;2.15;;;;;;;;;;5044334;28;20063;-68
2022/09/16 07:26:37;;;;;;;7.53;2.75;;;;;;;;;;5041378;28;20068;-68
2022/09/16 07:29:04;;;;;;;4.43;2.22;;;;;;;;;;5047606;28;20090;-68
2022/09/16 07:31:31;;;;;;;7.68;2.85;;;;;;;;;;5044837;28;20052;-67
2022/09/16 07:34:00;;;;;;;6.95;2.45;;;;;;;;;;5047882;28;20126;-67
2022/09/16 07:36:27;;;;;;;7.40;1.98;;;;;;;;;;5056316;28;20830;-67
2022/09/16 07:38:56;;;;;;;5.90;1.92;;;;;;;;;;5049718;28;20040;-69
2022/09/16 07:41:22;;;;;;;6.18;1.92;;;;;;;;;;5046360;28;20138;-67
2022/09/16 07:43:49;;;;;;;4.20;1.42;;;;;;;;;;5047593;28;20041;-68
2022/09/16 07:46:16;;;;;;;2.28;1.20;;;;;;;;;;5044098;28;20036;-68
2022/09/16 07:48:43;;;;;;;4.25;1.10;;;;;;;;;;5048116;28;20044;-68
2022/09/16 07:51:10;;;;;;;2.53;1.23;;;;;;;;;;5045044;28;20551;-69
2022/09/16 07:53:36;;;;;;;4.53;1.88;;;;;;;;;;5047338;28;20118;-68
2022/09/16 07:56:03;;;;;;;3.63;0.77;;;;;;;;;;5044946;28;20029;-68
2022/09/16 07:58:30;;;;;;;3.50;0.70;;;;;;;;;;5048223;28;20056;-68
2022/09/16 08:00:56;;;;;;;3.17;1.00;;;;;;;;;;5044824;28;20123;-68
2022/09/16 08:03:22;;;;;;;4.88;1.42;;;;;;;;;;5049169;28;20051;-68
2022/09/16 08:05:48;;;;;;;1.75;1.00;;;;;;;;;;5043838;28;20192;-68
2022/09/16 08:08:14;;;;;;;;;;;;;;;;;;5044926;28;20116;-67
2022/09/16 08:10:40;;;;;;;3.15;1.10;;;;;;;;;;5042315;28;20281;-66
2022/09/16 08:13:06;;;;;;;;;;;;;;;;;;5047173;28;20041;-65
2022/09/16 08:15:32;;;;;;;1.33;1.00;;;;;;;;;;5044198;28;19927;-68
2022/09/16 08:17:58;;;;;;;4.95;0.90;;;;;;;;;;5047717;28;20037;-69
2022/09/16 08:20:25;;;;;;;3.10;0.80;;;;;;;;;;5044585;28;20041;-68
2022/09/16 08:22:52;;;;;;;2.33;0.90;;;;;;;;;;5046734;28;20501;-68
2022/09/16 08:25:18;;;;;;;2.65;1.10;;;;;;;;;;5044459;28;20035;-66
2022/09/16 08:27:44;;;;;;;;;;;;;;;;;;5047448;28;20049;-67
2022/09/16 08:30:10;;;;;;;5.28;2.17;;;;;;;;;;5044428;28;19923;-68
2022/09/16 08:32:36;;;;;;;4.05;1.50;;;;;;;;;;5046595;28;20059;-67
2022/09/16 08:35:02;;;;;;;;;;;;;;;;;;5046766;28;20033;-68
2022/09/16 08:37:28;;;;;;;3.60;1.80;;;;;;;;;;5042941;28;19984;-68
2022/09/16 08:39:54;;;;;;;;;;;;;;;;;;5045367;28;20102;-69
2022/09/16 08:42:43;;;;;;;3.42;1.83;;;;;;;;;;5045536;28;19920;-67
2022/09/16 08:45:28;;;;;;;6.88;2.50;;;;;;;;;;5035042;28;20095;-66
2022/09/16 08:48:06;;;;;;;4.75;2.33;;;;;;;;;;5046700;28;20047;-68
2022/09/16 08:50:36;;;;;;;16.75;2.70;;;;;;;;;;5044691;28;20045;-66
2022/09/16 08:53:05;;;;;;;8.90;3.90;;;;;;;;;;5047317;28;20133;-67
2022/09/16 08:55:39;;;;;;;14.63;3.42;;;;;;;;;;5046355;28;20129;-67
2022/09/16 08:58:10;;;;;;;4.95;3.10;;;;;;;;;;5049111;28;20051;-67
2022/09/16 09:00:36;;;;;;;6.78;2.90;;;;;;;;;;5045441;28;20049;-66
2022/09/16 09:03:05;;;;;;;4.35;3.03;;;;;;;;;;5046602;28;20048;-67
2022/09/16 09:05:54;;;;;;;3.45;2.60;;;;;;;;;;5045090;28;20082;-67
2022/09/16 09:08:26;;;;;;;5.70;2.88;;;;;;;;;;5040273;28;20397;-70
2022/09/16 09:10:59;;;;;;;6.55;3.63;;;;;;;;;;5043307;28;20033;-64
2022/09/16 09:13:31;;;;;;;8.38;2.75;;;;;;;;;;5047901;28;20048;-72
2022/09/16 09:16:01;;;;;;;5.30;2.92;;;;;;;;;;5044036;28;20461;-68
2022/09/16 09:18:29;;;;;;;5.75;3.03;;;;;;;;;;5059237;28;20040;-68
2022/09/16 09:21:11;;;;;;;5.30;3.33;;;;;;;;;;5053549;28;20048;-70
2022/09/16 09:23:39;;;;;;;5.32;3.10;;;;;;;;;;5053495;28;20037;-68
2022/09/16 09:26:08;;;;;;;6.80;3.22;;;;;;;;;;5039364;28;20037;-68
2022/09/16 09:28:44;;;;;;;5.32;2.97;;;;;;;;;;5048712;28;20848;-67
2022/09/16 09:31:16;;;;;;;5.20;2.80;;;;;;;;;;5038764;28;20447;-68
2022/09/16 09:33:51;;;;;;;4.22;2.63;;;;;;;;;;5045837;28;20044;-67
2022/09/16 09:36:26;;;;;;;5.20;2.30;;;;;;;;;;5045182;28;20048;-68
2022/09/16 09:39:18;;;;;;;3.13;1.88;;;;;;;;;;5048598;28;20083;-67
2022/09/16 09:42:08;;;;;;;2.75;1.73;;;;;;;;;;5028008;28;20037;-68
2022/09/16 09:44:41;;;;;;;4.82;1.83;;;;;;;;;;5038581;28;20049;-68
2022/09/16 09:47:11;;;;;;;4.93;2.05;;;;;;;;;;5045753;28;20037;-68
2022/09/16 09:49:45;;;;;;;2.17;1.30;;;;;;;;;;5046571;28;20039;-69
2022/09/16 09:52:14;;;;;;;2.75;1.60;;;;;;;;;;5053643;28;20527;-69
2022/09/16 09:54:43;;;;;;;4.45;1.27;;;;;;;;;;5044492;28;20041;-69
2022/09/16 09:57:16;;;;;;;3.10;1.42;;;;;;;;;;5041673;28;20730;-69
2022/09/16 09:59:46;;;;;;;1.92;1.10;;;;;;;;;;5050983;28;20045;-69
2022/09/16 10:02:22;;;;;;;2.92;1.00;;;;;;;;;;5052527;28;20066;-68
2022/09/16 10:04:48;;;;;;;2.22;0.90;;;;;;;;;;5040933;28;20562;-68
2022/09/16 10:07:16;;;;;;;3.40;1.00;;;;;;;;;;5052987;28;20135;-68
2022/09/16 10:10:04;;;;;;;1.52;0.85;;;;;;;;;;5045956;28;20459;-63
2022/09/16 10:12:31;;;;;;;1.80;0.80;;;;;;;;;;5044885;28;20127;-67
2022/09/16 10:14:57;;;;;;;1.92;0.80;;;;;;;;;;5038085;28;20579;-67
2022/09/16 10:17:25;;;;;;;3.38;1.00;;;;;;;;;;5041307;28;20057;-68
2022/09/16 10:19:52;;;;;;;1.88;0.85;;;;;;;;;;5043957;28;20501;-69
2022/09/16 10:22:26;;;;;;;2.83;1.10;;;;;;;;;;5045090;28;20044;-70
2022/09/16 10:24:59;;;;;;;5.75;0.90;;;;;;;;;;5057908;28;20040;-68
2022/09/16 10:27:35;;;;;;;3.17;1.23;;;;;;;;;;5042051;28;20076;-66
2022/09/16 10:30:03;;;;;;;4.82;1.00;;;;;;;;;;5045958;28;20033;-65
2022/09/16 10:32:29;;;;;;;4.45;1.08;;;;;;;;;;5043077;28;20049;-67
2022/09/16 10:34:55;;;;;;;5.00;1.33;;;;;;;;;;5067815;28;20052;-68
2022/09/16 10:37:22;;;;;;;4.00;0.70;;;;;;;;;;5041154;28;20094;-68
2022/09/16 10:39:52;;;;;;;5.20;1.02;;;;;;;;;;5043423;28;20409;-67
2022/09/16 10:42:23;;;;;;;3.55;1.08;;;;;;;;;;5048427;28;20041;-67
2022/09/16 10:44:50;;;;;;;11.13;1.30;;;;;;;;;;5048237;28;20045;-67
2022/09/16 10:47:27;;;;;;;2.53;0.90;;;;;;;;;;5042937;28;20033;-66
2022/09/16 10:50:00;;;;;;;4.07;0.75;;;;;;;;;;5044707;28;20114;-67
2022/09/16 10:52:30;;;;;;;5.20;1.40;;;;;;;;;;5043868;28;21164;-68
2022/09/16 10:54:56;;;;;;;3.20;1.02;;;;;;;;;;5056327;28;20137;-67
2022/09/16 10:57:24;;;;;;;3.80;1.00;;;;;;;;;;5047783;28;20049;-66
2022/09/16 10:59:57;;;;;;;2.80;0.90;;;;;;;;;;5052813;28;20094;-67
2022/09/16 11:02:35;;;;;;;5.28;1.17;;;;;;;;;;5041973;28;20090;-67
2022/09/16 11:05:18;;;;;;;4.90;1.30;;;;;;;;;;5041742;28;20052;-68
2022/09/16 11:07:44;;;;;;;2.63;1.10;;;;;;;;;;5040190;28;20053;-65
2022/09/16 11:10:10;;;;;;;;;;;;;;;;;;5068089;28;20119;-66
2022/09/16 11:12:55;;;;;;;3.40;1.10;;;;;;;;;;5044896;28;20011;-67
2022/09/16 11:15:39;;;;;;;3.03;1.33;;;;;;;;;;5042440;28;20513;-65
2022/09/16 11:18:08;;;;;;;2.40;0.77;;;;;;;;;;5044920;28;20098;-67
2022/09/16 11:20:41;;;;;;;5.53;1.23;;;;;;;;;;5044451;28;20041;-67
2022/09/16 11:23:16;;;;;;;4.15;1.38;;;;;;;;;;5038041;28;20068;-68
2022/09/16 11:25:58;;;;;;;4.75;1.15;;;;;;;;;;5042130;28;20040;-67
2022/09/16 11:28:42;;;;;;;5.60;0.82;;;;;;;;;;5047082;28;20045;-67
2022/09/16 11:31:08;;;;;;;2.83;0.60;;;;;;;;;;5034464;28;20037;-65
2022/09/16 11:33:34;;;;;;;;;;;;;;;;;;5051099;28;20039;-68
2022/09/16 11:36:27;;;;;;;3.55;0.80;;;;;;;;;;5047950;28;19924;-68
2022/09/16 11:39:03;;;;;;;5.15;1.08;;;;;;;;;;5044493;28;20135;-68
2022/09/16 11:41:47;;;;;;;4.95;1.02;;;;;;;;;;5041630;28;20162;-68
2022/09/16 11:44:23;;;;;;;5.00;0.93;;;;;;;;;;5053996;28;20070;-68
2022/09/16 11:47:08;;;;;;;4.35;1.00;;;;;;;;;;5043338;28;20447;-67
2022/09/16 11:49:52;;;;;;;7.10;1.10;;;;;;;;;;5052573;28;20094;-68
2022/09/16 11:52:18;;;;;;;2.50;0.90;;;;;;;;;;5049450;28;20036;-68
2022/09/16 11:54:44;;;;;;;;;;;;;;;;;;5056247;28;20035;-66
2022/09/16 11:57:12;;;;;;;3.40;1.00;;;;;;;;;;5052801;28;19921;-67
2022/09/16 11:59:44;;;;;;;2.97;0.82;;;;;;;;;;5061763;28;20090;-68
2022/09/16 12:02:23;;;;;;;3.90;0.93;;;;;;;;;;5040338;28;20041;-67
2022/09/16 12:05:01;;;;;;;2.65;0.90;;;;;;;;;;5044652;28;20037;-67
2022/09/16 12:07:43;;;;;;;3.45;1.00;;;;;;;;;;5043737;28;20071;-67
2022/09/16 12:10:19;;;;;;;3.20;0.93;;;;;;;;;;5035256;28;20124;-67
2022/09/16 12:12:51;;;;;;;4.57;0.88;;;;;;;;;;5046868;28;20124;-67
2022/09/16 12:15:20;;;;;;;5.28;0.60;;;;;;;;;;5047876;28;20519;-67
2022/09/16 12:17:54;;;;;;;4.97;1.10;;;;;;;;;;5050528;28;20060;-67
2022/09/16 12:20:31;;;;;;;2.53;0.88;;;;;;;;;;5045793;28;20440;-67
2022/09/16 12:23:03;;;;;;;2.33;0.60;;;;;;;;;;5046330;28;20044;-67
2022/09/16 12:25:37;;;;;;;3.60;0.70;;;;;;;;;;5043949;28;20374;-68
2022/09/16 12:28:07;;;;;;;3.63;1.13;;;;;;;;;;5051754;28;20049;-67
2022/09/16 12:30:37;;;;;;;4.10;0.75;;;;;;;;;;5049938;28;20049;-66
2022/09/16 12:33:20;;;;;;;4.95;1.20;;;;;;;;;;5047892;28;20051;-67
2022/09/16 12:35:46;;;;;;;3.53;1.27;;;;;;;;;;5046941;28;20044;-66
2022/09/16 12:38:12;;;;;;;;;;;;;;;;;;5049376;28;20680;-68
2022/09/16 12:40:51;;;;;;;2.15;0.70;;;;;;;;;;5040643;28;19917;-67
2022/09/16 12:43:23;;;;;;;5.60;1.27;;;;;;;;;;5041031;28;20222;-67
2022/09/16 12:45:52;;;;;;;6.25;1.27;;;;;;;;;;5046704;28;20367;-68
2022/09/16 12:48:37;;;;;;;2.40;0.47;;;;;;;;;;5044655;23;20149;-64
2022/09/16 12:51:15;;;;;;;2.75;0.73;;;;;;;;;;5004439;28;20038;-66
2022/09/16 12:54:00;;;;;;;1.95;0.55;;;;;;;;;;5000135;28;20034;-66
2022/09/16 12:56:45;;;;;;;0.75;0.50;;;;;;;;;;5002548;28;20046;-67
2022/09/16 12:59:14;;;;;;;1.58;0.35;;;;;;;;;;4998598;28;20042;-67
2022/09/16 13:01:44;;;;;;;1.98;0.40;;;;;;;;;;5013012;28;20038;-67
2022/09/16 13:04:43;;;;;;;2.55;0.40;;;;;;;;;;5005909;28;20042;-67
2022/09/16 13:07:18;;;;;;;1.40;0.60;;;;;;;;;;4992126;28;20045;-66
2022/09/16 13:09:46;;;;;;;0.97;0.43;;;;;;;;;;5001588;28;20052;-67
2022/09/16 13:12:24;;;;;;;0.93;0.30;;;;;;;;;;5004304;28;20376;-68
2022/09/16 13:14:53;;;;;;;1.17;0.40;;;;;;;;;;5005967;28;20175;-67
2022/09/16 13:17:32;;;;;;;4.07;0.40;;;;;;;;;;5010773;28;20271;-67
2022/09/16 13:20:06;;;;;;;2.75;0.40;;;;;;;;;;5012197;28;20567;-68
2022/09/16 13:22:37;;;;;;;2.38;0.28;;;;;;;;;;4999709;28;20045;-68
2022/09/16 13:25:09;;;;;;;2.95;0.40;;;;;;;;;;4995028;28;20052;-68
2022/09/16 13:27:37;;;;;;;2.95;0.40;;;;;;;;;;5001566;28;20041;-66
2022/09/16 13:30:10;;;;;;;1.33;0.50;;;;;;;;;;5007428;28;20048;-67
2022/09/16 13:32:45;;;;;;;7.00;0.50;;;;;;;;;;5002915;28;20084;-66
2022/09/16 13:35:19;;;;;;;2.33;0.77;;;;;;;;;;5000309;28;20125;-65
2022/09/16 13:37:46;;;;;;;5.57;1.30;;;;;;;;;;5013745;28;20049;-67
2022/09/16 13:40:17;;;;;;;4.18;0.98;;;;;;;;;;5004566;28;20034;-67
2022/09/16 13:42:43;;;;;;;8.70;2.20;;;;;;;;;;5010304;28;20180;-67
2022/09/16 13:45:30;;;;;;;1.98;0.50;;;;;;;;;;5003503;28;20052;-67
2022/09/16 13:47:56;;;;;;;0.98;0.43;;;;;;;;;;5015436;28;20107;-66
2022/09/16 13:50:24;;;;;;;7.88;0.88;;;;;;;;;;5004555;28;20093;-67
2022/09/16 13:52:51;;;;;;;3.60;0.70;;;;;;;;;;5008818;28;20046;-68
2022/09/16 13:55:24;;;;;;;2.35;0.70;;;;;;;;;;5001382;28;20065;-67
2022/09/16 13:58:03;;;;;;;5.07;0.50;;;;;;;;;;5015016;28;20041;-67
2022/09/16 14:00:34;;;;;;;7.03;0.82;;;;;;;;;;5003542;28;20045;-67
2022/09/16 14:03:00;;;;;;;3.22;0.70;;;;;;;;;;5014778;28;20042;-66
2022/09/16 14:05:27;;;;;;;;;;;;;;;;;;5001713;28;20112;-68
2022/09/16 14:07:59;;;;;;;4.18;0.50;;;;;;;;;;5015095;28;19928;-67
2022/09/16 14:10:25;;;;;;;4.80;0.93;;;;;;;;;;5026128;28;20050;-65
2022/09/16 14:12:51;;;;;;;;;;;;;;;;;;5007108;28;20034;-64
2022/09/16 14:15:18;;;;;;;3.85;0.50;;;;;;;;;;5006319;28;19920;-68
2022/09/16 14:17:47;;;;;;;1.58;0.50;;;;;;;;;;5015347;28;20046;-67
2022/09/16 14:20:15;;;;;;;2.45;0.50;;;;;;;;;;5002306;28;20048;-67
2022/09/16 14:22:43;;;;;;;4.20;0.43;;;;;;;;;;5015354;28;20041;-67
2022/09/16 14:25:25;;;;;;;1.25;0.30;;;;;;;;;;5006434;28;20084;-66
2022/09/16 14:27:52;;;;;;;1.70;0.60;;;;;;;;;;5015096;28;20041;-67
2022/09/16 14:30:18;;;;;;;2.70;0.65;;;;;;;;;;5004907;28;20053;-66
2022/09/16 14:32:46;;;;;;;1.85;0.43;;;;;;;;;;5008026;28;20120;-67
2022/09/16 14:35:18;;;;;;;8.45;0.80;;;;;;;;;;5001914;28;20037;-67
2022/09/16 14:37:46;;;;;;;4.38;1.13;;;;;;;;;;5015652;28;20048;-65
2022/09/16 14:40:18;;;;;;;2.97;0.65;;;;;;;;;;4999507;28;20038;-67
2022/09/16 14:42:52;;;;;;;3.15;0.77;;;;;;;;;;5007474;28;20045;-67
2022/09/16 14:45:19;;;;;;;4.07;0.93;;;;;;;;;;5001547;28;20041;-67
2022/09/16 14:47:46;;;;;;;3.42;0.50;;;;;;;;;;5013821;28;20080;-67
2022/09/16 14:50:27;;;;;;;4.55;0.60;;;;;;;;;;4999703;28;20038;-67
2022/09/16 14:52:54;;;;;;;2.13;0.50;;;;;;;;;;5004162;28;20100;-67
2022/09/16 14:55:21;;;;;;;1.92;0.63;;;;;;;;;;5004111;28;20044;-67
2022/09/16 14:57:48;;;;;;;2.97;0.50;;;;;;;;;;5014771;28;20095;-67